createdAt,value
2018-06-05T00:01:19.512Z,17.80
2018-06-05T00:03:48.060Z,17.80
2018-06-05T00:06:16.644Z,17.70
2018-06-05T00:08:45.164Z,17.80
2018-06-05T00:11:14.463Z,17.60
2018-06-05T00:13:43.692Z,17.50
2018-06-05T00:16:12.885Z,17.40
2018-06-05T00:18:41.415Z,17.40
2018-06-05T00:21:09.989Z,17.40
2018-06-05T00:26:06.745Z,17.40
2018-06-05T00:31:03.482Z,17.40
2018-06-05T00:33:32.650Z,17.40
2018-06-05T00:36:02.517Z,17.40
2018-06-05T00:40:59.278Z,17.30
2018-06-05T00:45:56.553Z,17.30
2018-06-05T00:48:25.638Z,17.20
2018-06-05T00:53:22.444Z,17.20
2018-06-05T00:55:51.578Z,17.20
2018-06-05T00:58:22.031Z,17.10
2018-06-05T01:03:18.813Z,17.10
2018-06-05T01:05:47.372Z,17.00
2018-06-05T01:10:44.149Z,17.00
2018-06-05T01:13:13.403Z,17.00
2018-06-05T01:15:43.472Z,17.00
2018-06-05T01:18:12.057Z,17.00
2018-06-05T01:20:40.610Z,17.00
2018-06-05T01:25:37.368Z,17.00
2018-06-05T01:30:34.701Z,17.00
2018-06-05T01:33:03.297Z,17.10
2018-06-05T01:35:32.392Z,16.90
2018-06-05T01:38:00.977Z,16.90
2018-06-05T01:40:29.519Z,16.80
2018-06-05T01:42:59.002Z,16.90
2018-06-05T01:50:24.946Z,16.80
2018-06-05T01:52:54.609Z,16.70
2018-06-05T01:55:23.141Z,16.60
2018-06-05T01:57:52.174Z,16.50
2018-06-05T02:00:20.737Z,16.50
2018-06-05T02:05:18.185Z,16.50
2018-06-05T02:07:47.361Z,16.40
2018-06-05T02:10:15.878Z,16.50
2018-06-05T02:12:44.449Z,16.50
2018-06-05T02:15:13.628Z,16.50
2018-06-05T02:17:43.101Z,16.60
2018-06-05T02:20:11.642Z,16.60
2018-06-05T02:22:40.218Z,16.70
2018-06-05T02:25:08.764Z,16.60
2018-06-05T02:27:37.305Z,16.60
2018-06-05T02:32:34.123Z,16.60
2018-06-05T02:35:02.670Z,16.60
2018-06-05T02:37:32.028Z,16.50
2018-06-05T02:40:01.086Z,16.60
2018-06-05T02:42:29.658Z,16.50
2018-06-05T02:44:58.222Z,16.30
2018-06-05T02:47:27.577Z,16.30
2018-06-05T02:49:56.718Z,16.30
2018-06-05T02:54:53.988Z,16.30
2018-06-05T02:59:50.762Z,16.30
2018-06-05T03:02:19.300Z,16.30
2018-06-05T03:04:48.472Z,16.30
2018-06-05T03:07:16.986Z,16.30
2018-06-05T03:09:46.032Z,16.30
2018-06-05T03:12:15.065Z,16.30
2018-06-05T03:14:43.649Z,16.30
2018-06-05T03:17:12.181Z,16.40
2018-06-05T03:22:09.817Z,16.30
2018-06-05T03:24:38.866Z,16.30
2018-06-05T03:27:07.397Z,16.30
2018-06-05T03:29:35.979Z,16.30
2018-06-05T03:32:04.558Z,16.40
2018-06-05T03:34:33.138Z,16.40
2018-06-05T03:37:01.700Z,16.40
2018-06-05T03:39:30.317Z,16.50
2018-06-05T03:41:58.872Z,16.50
2018-06-05T03:44:27.453Z,16.40
2018-06-05T03:46:56.040Z,16.30
2018-06-05T03:49:24.640Z,16.20
2018-06-05T03:51:53.201Z,16.20
2018-06-05T03:54:21.769Z,16.20
2018-06-05T03:56:50.313Z,16.30
2018-06-05T03:59:18.873Z,16.40
2018-06-05T04:01:47.437Z,16.50
2018-06-05T04:04:15.990Z,16.60
2018-06-05T04:06:44.555Z,16.80
2018-06-05T04:09:13.139Z,16.90
2018-06-05T04:11:41.669Z,16.90
2018-06-05T04:14:10.237Z,16.90
2018-06-05T04:19:07.009Z,17.10
2018-06-05T04:21:35.613Z,17.10
2018-06-05T04:24:04.181Z,17.10
2018-06-05T04:26:32.764Z,17.10
2018-06-05T04:29:01.347Z,17.10
2018-06-05T04:31:29.945Z,17.10
2018-06-05T04:33:58.509Z,17.20
2018-06-05T04:36:27.074Z,17.30
2018-06-05T04:41:23.830Z,17.50
2018-06-05T04:43:52.417Z,17.50
2018-06-05T04:48:49.198Z,17.60
2018-06-05T04:51:17.781Z,17.70
2018-06-05T04:53:46.392Z,17.80
2018-06-05T04:56:14.954Z,17.80
2018-06-05T04:58:43.491Z,17.80
2018-06-05T05:01:13.806Z,17.80
2018-06-05T05:03:42.346Z,17.80
2018-06-05T05:06:10.958Z,18.00
2018-06-05T05:08:39.506Z,18.20
2018-06-05T05:11:14.238Z,18.30
2018-06-05T05:13:43.027Z,18.40
2018-06-05T05:16:11.712Z,18.60
2018-06-05T05:18:41.141Z,19.60
2018-06-05T05:21:09.777Z,20.30
2018-06-05T05:23:38.362Z,20.40
2018-06-05T05:26:06.941Z,20.20
2018-06-05T05:28:35.550Z,20.00
2018-06-05T05:33:33.229Z,19.70
2018-06-05T05:38:30.238Z,20.50
2018-06-05T05:40:59.596Z,21.40
2018-06-05T05:48:26.414Z,23.50
2018-06-05T05:50:55.128Z,24.90
2018-06-05T05:53:23.701Z,25.60
2018-06-05T05:55:53.120Z,25.40
2018-06-05T05:58:23.385Z,26.00
2018-06-05T06:00:52.917Z,26.50
2018-06-05T06:03:24.154Z,26.90
2018-06-05T06:05:55.208Z,27.60
2018-06-05T06:08:24.632Z,27.10
2018-06-05T06:10:53.445Z,27.30
2018-06-05T06:13:22.705Z,26.50
2018-06-05T06:15:51.606Z,25.90
2018-06-05T06:18:20.181Z,25.30
2018-06-05T06:20:48.782Z,25.10
2018-06-05T06:23:17.957Z,24.30
2018-06-05T06:25:46.552Z,24.20
2018-06-05T06:28:15.085Z,23.80
2018-06-05T06:33:12.370Z,23.90
2018-06-05T06:38:09.786Z,23.50
2018-06-05T06:40:39.339Z,23.30
2018-06-05T06:45:36.129Z,22.90
2018-06-05T06:48:04.987Z,23.00
2018-06-05T06:53:01.806Z,23.10
2018-06-05T06:55:30.374Z,23.30
2018-06-05T06:57:58.975Z,23.60
2018-06-05T07:00:27.525Z,24.10
2018-06-05T07:02:56.143Z,24.20
2018-06-05T07:05:24.729Z,24.50
2018-06-05T07:07:53.873Z,24.50
2018-06-05T07:12:58.561Z,24.20
2018-06-05T07:15:27.171Z,24.20
2018-06-05T07:17:55.751Z,24.40
2018-06-05T07:20:24.298Z,24.70
2018-06-05T07:22:53.801Z,24.80
2018-06-05T07:25:22.365Z,24.90
2018-06-05T07:27:50.961Z,24.90
2018-06-05T07:30:19.539Z,24.50
2018-06-05T07:32:48.142Z,24.60
2018-06-05T07:35:17.295Z,24.80
2018-06-05T07:37:45.987Z,24.60
2018-06-05T07:40:14.541Z,24.50
2018-06-05T07:42:43.620Z,24.40
2018-06-05T07:45:12.410Z,24.60
2018-06-05T07:47:40.974Z,24.40
2018-06-05T07:50:10.296Z,24.40
2018-06-05T07:52:39.082Z,24.60
2018-06-05T07:55:07.624Z,24.30
2018-06-05T07:57:36.281Z,24.20
2018-06-05T08:00:05.121Z,24.40
2018-06-05T08:02:33.697Z,24.40
2018-06-05T08:05:02.252Z,24.50
2018-06-05T08:07:30.825Z,24.60
2018-06-05T08:09:59.458Z,24.50
2018-06-05T08:12:28.723Z,24.60
2018-06-05T08:14:57.260Z,24.60
2018-06-05T08:17:25.873Z,24.80
2018-06-05T08:19:54.473Z,25.10
2018-06-05T08:22:23.300Z,25.20
2018-06-05T08:24:51.872Z,25.00
2018-06-05T08:29:48.748Z,24.60
2018-06-05T08:32:17.789Z,24.60
2018-06-05T08:34:46.681Z,24.80
2018-06-05T08:37:15.297Z,24.90
2018-06-05T08:42:12.945Z,25.00
2018-06-05T08:44:41.678Z,24.90
2018-06-05T08:47:10.297Z,24.90
2018-06-05T08:49:39.765Z,24.80
2018-06-05T08:54:36.589Z,24.90
2018-06-05T08:57:05.209Z,25.00
2018-06-05T08:59:33.814Z,25.10
2018-06-05T09:02:02.903Z,25.00
2018-06-05T09:04:31.509Z,25.10
2018-06-05T09:07:00.094Z,25.00
2018-06-05T09:09:28.783Z,24.90
2018-06-05T09:11:57.362Z,25.00
2018-06-05T09:14:25.941Z,25.00
2018-06-05T09:16:54.530Z,25.10
2018-06-05T09:19:23.228Z,25.20
2018-06-05T09:21:51.804Z,25.30
2018-06-05T09:24:20.401Z,25.50
2018-06-05T09:26:49.069Z,25.60
2018-06-05T09:29:17.656Z,25.70
2018-06-05T09:31:46.234Z,25.70
2018-06-05T09:34:14.852Z,25.90
2018-06-05T09:36:43.404Z,26.00
2018-06-05T09:39:20.106Z,26.10
2018-06-05T09:42:04.633Z,25.90
2018-06-05T09:44:33.523Z,26.00
2018-06-05T09:47:02.086Z,25.80
2018-06-05T09:49:30.717Z,25.70
2018-06-05T09:52:05.746Z,25.70
2018-06-05T09:54:34.339Z,25.90
2018-06-05T09:57:02.918Z,25.90
2018-06-05T09:59:31.529Z,25.90
2018-06-05T10:02:00.161Z,25.70
2018-06-05T10:04:28.747Z,25.80
2018-06-05T10:06:58.827Z,25.70
2018-06-05T10:09:29.482Z,26.00
2018-06-05T10:12:00.653Z,26.10
2018-06-05T10:14:34.201Z,26.00
2018-06-05T10:17:04.926Z,25.90
2018-06-05T10:19:33.486Z,25.90
2018-06-05T10:22:02.378Z,25.90
2018-06-05T10:24:31.071Z,26.00
2018-06-05T10:27:01.617Z,26.00
2018-06-05T10:29:30.312Z,26.10
2018-06-05T10:31:59.377Z,26.20
2018-06-05T10:34:27.950Z,26.30
2018-06-05T10:36:56.517Z,26.50
2018-06-05T10:39:25.105Z,26.60
2018-06-05T10:41:53.650Z,26.50
2018-06-05T10:44:22.220Z,26.00
2018-06-05T10:46:50.779Z,26.10
2018-06-05T10:49:19.925Z,26.30
2018-06-05T10:51:48.555Z,26.50
2018-06-05T10:54:17.097Z,26.30
2018-06-05T10:56:45.627Z,26.40
2018-06-05T10:59:15.433Z,26.50
2018-06-05T11:01:44.730Z,26.30
2018-06-05T11:04:13.361Z,26.40
2018-06-05T11:06:41.900Z,26.40
2018-06-05T11:09:10.582Z,26.50
2018-06-05T11:11:46.856Z,26.60
2018-06-05T11:14:15.653Z,26.60
2018-06-05T11:16:44.279Z,26.60
2018-06-05T11:19:12.893Z,26.60
2018-06-05T11:21:41.998Z,26.40
2018-06-05T11:24:10.687Z,26.70
2018-06-05T11:26:39.394Z,26.70
2018-06-05T11:29:08.086Z,26.70
2018-06-05T11:31:36.666Z,26.80
2018-06-05T11:34:06.184Z,26.80
2018-06-05T11:36:34.812Z,26.70
2018-06-05T11:41:33.193Z,26.90
2018-06-05T11:44:01.861Z,27.00
2018-06-05T11:46:30.449Z,27.20
2018-06-05T11:48:59.989Z,27.30
2018-06-05T11:56:25.256Z,27.10
2018-06-05T11:58:53.988Z,26.90
2018-06-05T12:01:22.545Z,26.90
2018-06-05T12:03:51.099Z,26.70
2018-06-05T12:06:19.719Z,26.60
2018-06-05T12:08:54.729Z,26.90
2018-06-05T12:11:23.537Z,27.00
2018-06-05T12:13:52.090Z,27.10
2018-06-05T12:18:48.961Z,27.00
2018-06-05T12:21:17.691Z,27.10
2018-06-05T12:23:46.878Z,27.20
2018-06-05T12:26:15.483Z,27.00
2018-06-05T12:28:44.049Z,26.80
2018-06-05T12:31:12.771Z,26.80
2018-06-05T12:33:41.359Z,26.70
2018-06-05T12:36:10.812Z,26.80
2018-06-05T12:38:39.367Z,26.90
2018-06-05T12:43:37.252Z,26.90
2018-06-05T12:48:35.061Z,27.00
2018-06-05T12:53:35.719Z,27.00
2018-06-05T12:56:04.258Z,27.00
2018-06-05T12:58:32.770Z,27.10
2018-06-05T13:01:01.349Z,27.30
2018-06-05T13:03:29.948Z,27.20
2018-06-05T13:05:58.525Z,27.10
2018-06-05T13:08:28.082Z,27.10
2018-06-05T13:10:59.601Z,27.20
2018-06-05T13:13:28.287Z,27.20
2018-06-05T13:15:56.869Z,27.30
2018-06-05T13:18:25.408Z,27.30
2018-06-05T13:20:53.994Z,27.20
2018-06-05T13:23:22.537Z,27.30
2018-06-05T13:25:51.135Z,27.10
2018-06-05T13:28:19.701Z,27.20
2018-06-05T13:30:48.255Z,27.20
2018-06-05T13:33:16.837Z,27.10
2018-06-05T13:35:45.386Z,27.10
2018-06-05T13:38:14.141Z,27.10
2018-06-05T13:40:42.765Z,27.30
2018-06-05T13:43:11.936Z,27.30
2018-06-05T13:45:40.686Z,27.40
2018-06-05T13:48:09.824Z,27.40
2018-06-05T13:50:39.416Z,27.20
2018-06-05T13:53:09.011Z,27.20
2018-06-05T13:55:37.575Z,27.30
2018-06-05T13:58:06.334Z,27.30
2018-06-05T14:00:34.897Z,27.30
2018-06-05T14:03:03.479Z,27.40
2018-06-05T14:05:32.055Z,27.20
2018-06-05T14:08:00.610Z,27.10
2018-06-05T14:10:29.151Z,27.10
2018-06-05T14:12:57.726Z,27.10
2018-06-05T14:15:26.289Z,27.20
2018-06-05T14:17:54.858Z,27.30
2018-06-05T14:20:23.401Z,27.40
2018-06-05T14:22:51.957Z,27.50
2018-06-05T14:25:20.489Z,27.60
2018-06-05T14:27:49.674Z,27.70
2018-06-05T14:32:46.447Z,27.90
2018-06-05T14:35:14.986Z,28.00
2018-06-05T14:37:44.058Z,27.70
2018-06-05T14:40:13.174Z,27.50
2018-06-05T14:42:41.717Z,27.40
2018-06-05T14:45:10.362Z,27.40
2018-06-05T14:47:38.871Z,27.30
2018-06-05T14:50:08.145Z,27.30
2018-06-05T14:52:37.400Z,27.00
2018-06-05T14:55:06.050Z,26.90
2018-06-05T15:00:03.446Z,26.90
2018-06-05T15:02:31.972Z,26.90
2018-06-05T15:05:00.547Z,27.00
2018-06-05T15:07:29.690Z,27.10
2018-06-05T15:12:26.998Z,27.40
2018-06-05T15:14:55.545Z,27.40
2018-06-05T15:19:53.061Z,27.10
2018-06-05T15:22:21.635Z,27.00
2018-06-05T15:24:50.238Z,26.90
2018-06-05T15:27:19.395Z,27.00
2018-06-05T15:29:47.982Z,26.90
2018-06-05T15:32:16.584Z,26.80
2018-06-05T15:34:45.197Z,26.70
2018-06-05T15:37:13.800Z,26.70
2018-06-05T15:39:42.353Z,26.50
2018-06-05T15:42:10.923Z,26.40
2018-06-05T15:44:39.474Z,26.30
2018-06-05T15:49:36.265Z,26.40
2018-06-05T15:52:04.883Z,26.50
2018-06-05T15:54:33.414Z,26.60
2018-06-05T15:57:02.015Z,26.70
2018-06-05T15:59:30.578Z,26.70
2018-06-05T16:04:27.356Z,26.80
2018-06-05T16:06:55.963Z,26.60
2018-06-05T16:09:24.519Z,26.60
2018-06-05T16:11:53.139Z,26.60
2018-06-05T16:14:22.614Z,26.60
2018-06-05T16:16:51.706Z,26.60
2018-06-05T16:19:21.497Z,26.60
2018-06-05T16:21:50.085Z,26.70
2018-06-05T16:24:18.659Z,26.60
2018-06-05T16:26:47.232Z,26.60
2018-06-05T16:29:15.784Z,26.50
2018-06-05T16:31:44.358Z,26.30
2018-06-05T16:34:12.973Z,26.40
2018-06-05T16:36:43.010Z,26.40
2018-06-05T16:39:11.647Z,26.40
2018-06-05T16:41:40.209Z,26.50
2018-06-05T16:44:08.768Z,26.50
2018-06-05T16:46:37.339Z,26.50
2018-06-05T16:49:05.909Z,26.50
2018-06-05T16:51:34.440Z,26.60
2018-06-05T16:54:03.018Z,26.50
2018-06-05T16:59:00.422Z,26.30
2018-06-05T17:01:29.014Z,26.30
2018-06-05T17:03:58.097Z,26.20
2018-06-05T17:06:26.654Z,26.20
2018-06-05T17:11:23.401Z,26.20
2018-06-05T17:13:51.975Z,26.20
2018-06-05T17:16:20.510Z,26.20
2018-06-05T17:18:49.072Z,26.10
2018-06-05T17:21:17.609Z,26.00
2018-06-05T17:23:46.154Z,26.10
2018-06-05T17:26:14.698Z,26.10
2018-06-05T17:28:43.257Z,26.00
2018-06-05T17:31:11.895Z,25.90
2018-06-05T17:33:40.460Z,25.90
2018-06-05T17:38:37.774Z,25.90
2018-06-05T17:41:06.343Z,25.90
2018-06-05T17:43:35.641Z,25.90
2018-06-05T17:46:04.851Z,25.90
2018-06-05T17:48:33.470Z,25.80
2018-06-05T17:51:02.496Z,25.80
2018-06-05T17:53:30.978Z,25.80
2018-06-05T17:56:00.010Z,25.80
2018-06-05T17:58:29.407Z,25.60
2018-06-05T18:00:57.975Z,25.70
2018-06-05T18:05:54.785Z,25.60
2018-06-05T18:08:23.316Z,25.60
2018-06-05T18:10:52.459Z,25.50
2018-06-05T18:13:21.061Z,25.50
2018-06-05T18:15:49.646Z,25.40
2018-06-05T18:18:19.168Z,25.40
2018-06-05T18:20:47.693Z,25.40
2018-06-05T18:23:16.702Z,25.40
2018-06-05T18:25:45.282Z,25.30
2018-06-05T18:28:13.865Z,25.20
2018-06-05T18:30:42.391Z,25.10
2018-06-05T18:33:11.003Z,25.00
2018-06-05T18:35:39.636Z,25.00
2018-06-05T18:38:08.215Z,24.90
2018-06-05T18:40:36.763Z,24.90
2018-06-05T18:43:06.118Z,24.80
2018-06-05T18:45:35.394Z,24.80
2018-06-05T18:48:04.650Z,24.70
2018-06-05T18:53:01.423Z,24.60
2018-06-05T18:55:30.619Z,24.60
2018-06-05T18:57:59.186Z,24.40
2018-06-05T19:00:28.542Z,24.40
2018-06-05T19:02:57.119Z,24.30
2018-06-05T19:05:25.658Z,24.20
2018-06-05T19:10:22.449Z,24.10
2018-06-05T19:12:51.104Z,24.00
2018-06-05T19:15:19.618Z,24.00
2018-06-05T19:17:48.219Z,24.00
2018-06-05T19:20:16.794Z,23.80
2018-06-05T19:22:45.371Z,23.80
2018-06-05T19:25:13.899Z,23.60
2018-06-05T19:27:42.459Z,23.60
2018-06-05T19:30:10.980Z,23.60
2018-06-05T19:32:39.552Z,23.50
2018-06-05T19:35:08.096Z,23.30
2018-06-05T19:37:37.194Z,23.30
2018-06-05T19:40:05.779Z,23.10
2018-06-05T19:42:34.315Z,23.10
2018-06-05T19:45:03.512Z,22.90
2018-06-05T19:47:32.796Z,22.90
2018-06-05T19:50:01.423Z,22.80
2018-06-05T19:54:58.289Z,22.60
2018-06-05T19:57:26.846Z,22.60
2018-06-05T19:59:55.423Z,22.50
2018-06-05T20:02:25.887Z,22.50
2018-06-05T20:04:54.457Z,22.30
2018-06-05T20:09:52.500Z,22.00
2018-06-05T20:12:21.033Z,21.80
2018-06-05T20:14:49.635Z,21.90
2018-06-05T20:17:18.171Z,21.80
2018-06-05T20:19:47.249Z,21.70
2018-06-05T20:22:15.808Z,21.60
2018-06-05T20:24:44.926Z,21.50
2018-06-05T20:27:13.462Z,21.30
2018-06-05T20:29:42.036Z,21.30
2018-06-05T20:32:10.622Z,21.30
2018-06-05T20:34:39.230Z,21.20
2018-06-05T20:37:07.784Z,21.00
2018-06-05T20:39:36.450Z,21.00
2018-06-05T20:42:05.070Z,20.90
2018-06-05T20:47:01.898Z,20.70
2018-06-05T20:49:31.338Z,20.70
2018-06-05T20:54:28.168Z,20.50
2018-06-05T20:56:56.726Z,20.60
2018-06-05T20:59:25.330Z,20.50
2018-06-05T21:01:53.912Z,20.50
2018-06-05T21:04:22.983Z,20.60
2018-06-05T21:06:51.533Z,20.50
2018-06-05T21:14:17.150Z,20.40
2018-06-05T21:16:45.715Z,20.30
2018-06-05T21:19:14.488Z,20.20
2018-06-05T21:21:43.101Z,20.20
2018-06-05T21:24:11.770Z,20.20
2018-06-05T21:26:41.054Z,20.20
2018-06-05T21:29:09.605Z,20.20
2018-06-05T21:31:38.161Z,20.10
2018-06-05T21:34:06.732Z,20.00
2018-06-05T21:36:35.722Z,20.00
2018-06-05T21:39:06.532Z,19.70
2018-06-05T21:41:35.097Z,19.70
2018-06-05T21:44:03.621Z,19.60
2018-06-05T21:46:32.202Z,19.50
2018-06-05T21:49:00.766Z,19.50
2018-06-05T21:51:29.348Z,19.40
2018-06-05T21:53:57.901Z,19.40
2018-06-05T21:56:26.485Z,19.40
2018-06-05T22:03:51.435Z,19.40
2018-06-05T22:06:20.005Z,19.30
2018-06-05T22:11:16.914Z,19.20
2018-06-05T22:13:45.508Z,19.10
2018-06-05T22:16:14.117Z,19.00
2018-06-05T22:18:42.633Z,19.10
2018-06-05T22:21:11.181Z,19.00
2018-06-05T22:23:39.697Z,19.10
2018-06-05T22:26:08.263Z,19.00
2018-06-05T22:28:36.836Z,18.90
2018-06-05T22:31:05.377Z,18.90
2018-06-05T22:33:33.921Z,18.90
2018-06-05T22:38:30.747Z,19.00
2018-06-05T22:40:59.332Z,18.90
2018-06-05T22:43:27.871Z,18.90
2018-06-05T22:45:56.450Z,18.90
2018-06-05T22:48:24.977Z,18.90
2018-06-05T22:50:53.537Z,18.80
2018-06-05T22:53:22.224Z,18.60
2018-06-05T22:55:51.329Z,18.50
2018-06-05T22:58:19.886Z,18.50
2018-06-05T23:00:48.442Z,18.50
2018-06-05T23:03:16.978Z,18.50
2018-06-05T23:05:45.496Z,18.40
2018-06-05T23:08:14.045Z,18.40
2018-06-05T23:10:42.574Z,18.40
2018-06-05T23:13:11.142Z,18.30
2018-06-05T23:15:39.653Z,18.20
2018-06-05T23:20:36.403Z,18.00
2018-06-05T23:23:04.961Z,18.10
2018-06-05T23:25:33.489Z,18.20
2018-06-05T23:30:30.239Z,18.10
2018-06-05T23:33:00.079Z,18.10
2018-06-05T23:35:29.090Z,18.10
2018-06-05T23:37:57.661Z,18.00
2018-06-05T23:40:26.220Z,17.90
2018-06-05T23:45:23.185Z,17.90
2018-06-05T23:50:19.928Z,18.00
2018-06-05T23:52:48.505Z,17.80
2018-06-05T23:55:17.034Z,17.80
2018-06-05T23:57:45.671Z,17.80
